Time;durP1;ratioP1;P1;durP2;ratioP2;P2;SDS_P1;SDS_P2;PMS_P1;PMS_P2;Temp;Humidity;BMP_temperature;BMP_pressure;BME280_temperature;BME280_humidity;BME280_pressure;Samples;Min_cycle;Max_cycle;Signal;HPM_P1;HPM_P2
2021/11/13 00:00:38;;;;;;;23.25;13.45;;;4.40;98.00;;;;;;5033539;28;20025;-76
2021/11/13 00:03:03;;;;;;;17.65;10.70;;;4.30;98.00;;;;;;5030574;28;20358;-75
2021/11/13 00:05:30;;;;;;;16.88;8.40;;;4.20;98.00;;;;;;5030859;28;20021;-76
2021/11/13 00:07:56;;;;;;;16.63;9.27;;;4.10;98.00;;;;;;5036386;28;20028;-78
2021/11/13 00:10:27;;;;;;;15.35;8.85;;;4.20;98.00;;;;;;5030655;28;20488;-75
2021/11/13 00:12:54;;;;;;;14.70;8.60;;;4.30;98.00;;;;;;5034855;28;20029;-76
2021/11/13 00:15:21;;;;;;;11.40;6.75;;;4.40;98.00;;;;;;5036247;28;20036;-76
2021/11/13 00:17:48;;;;;;;11.93;7.18;;;4.30;98.00;;;;;;5051728;28;20022;-77
2021/11/13 00:20:14;;;;;;;16.00;9.45;;;4.20;98.00;;;;;;5035291;28;20040;-75
2021/11/13 00:22:40;;;;;;;19.73;10.95;;;4.10;98.00;;;;;;5036196;28;20113;-76
2021/11/13 00:25:06;;;;;;;14.35;7.53;;;4.00;98.00;;;;;;5029084;28;20140;-76
2021/11/13 00:27:32;;;;;;;12.93;6.70;;;4.00;98.00;;;;;;5036353;28;20079;-75
2021/11/13 00:29:57;;;;;;;11.48;6.43;;;4.00;98.00;;;;;;5036132;28;20411;-75
2021/11/13 00:32:23;;;;;;;11.07;6.55;;;4.00;98.00;;;;;;5031280;28;20025;-75
2021/11/13 00:34:49;;;;;;;9.07;4.88;;;3.90;98.00;;;;;;5036510;28;20025;-75
2021/11/13 00:37:15;;;;;;;12.73;5.90;;;4.00;98.00;;;;;;5034448;28;20045;-76
2021/11/13 00:39:41;;;;;;;6.03;3.30;;;4.20;97.90;;;;;;5032588;28;20432;-76
2021/11/13 00:42:06;;;;;;;4.65;2.38;;;4.30;94.90;;;;;;5027735;28;20083;-75
2021/11/13 00:44:34;;;;;;;6.40;3.05;;;4.40;91.90;;;;;;5036210;28;20033;-75
2021/11/13 00:47:00;;;;;;;13.27;6.88;;;4.50;90.10;;;;;;5036343;28;20017;-76
2021/11/13 00:49:26;;;;;;;14.02;7.60;;;4.70;91.50;;;;;;5031815;28;20124;-76
2021/11/13 00:51:52;;;;;;;12.50;6.60;;;4.40;97.40;;;;;;5023447;28;20052;-76
2021/11/13 00:54:18;;;;;;;14.75;6.90;;;4.20;96.10;;;;;;5030460;28;20379;-75
2021/11/13 00:56:43;;;;;;;11.88;6.95;;;4.40;94.70;;;;;;5032924;28;20426;-76
2021/11/13 00:59:09;;;;;;;8.90;5.15;;;4.50;94.70;;;;;;5034038;28;20030;-76
2021/11/13 01:01:35;;;;;;;10.95;4.97;;;4.60;92.90;;;;;;5030845;28;20097;-76
2021/11/13 01:04:01;;;;;;;10.13;6.30;;;4.50;92.10;;;;;;5030501;28;20041;-76
2021/11/13 01:06:26;;;;;;;10.13;5.20;;;4.60;91.40;;;;;;5035670;28;20361;-76
2021/11/13 01:08:52;;;;;;;7.10;3.67;;;4.60;89.90;;;;;;5032373;28;20025;-76
2021/11/13 01:11:18;;;;;;;7.43;3.60;;;4.80;87.40;;;;;;5049860;28;20144;-75
2021/11/13 01:13:45;;;;;;;7.40;2.85;;;5.00;86.60;;;;;;5034522;28;20359;-76
2021/11/13 01:16:11;;;;;;;10.45;3.58;;;5.00;84.40;;;;;;5034014;28;20057;-76
2021/11/13 01:18:39;;;;;;;5.35;2.75;;;4.90;86.40;;;;;;5033803;28;20017;-76
2021/11/13 01:21:05;;;;;;;4.65;2.30;;;4.80;86.60;;;;;;5035234;28;20022;-76
2021/11/13 01:23:32;;;;;;;6.97;4.05;;;4.80;85.90;;;;;;5032365;28;20517;-76
2021/11/13 01:25:57;;;;;;;8.25;4.50;;;4.70;87.90;;;;;;5031797;28;20088;-76
2021/11/13 01:28:23;;;;;;;6.68;3.42;;;4.40;90.20;;;;;;5033666;28;21416;-78
2021/11/13 01:30:49;;;;;;;16.85;10.43;;;4.10;91.00;;;;;;5033882;28;20026;-76
2021/11/13 01:33:14;;;;;;;10.10;4.90;;;3.90;92.50;;;;;;5034832;28;20036;-76
2021/11/13 01:35:40;;;;;;;33.20;19.65;;;3.70;93.40;;;;;;5034738;28;20053;-76
2021/11/13 01:38:06;;;;;;;25.98;14.30;;;3.50;95.40;;;;;;5033032;28;20064;-76
2021/11/13 01:40:31;;;;;;;22.40;12.88;;;3.50;96.00;;;;;;5030529;28;20030;-76
2021/11/13 01:43:00;;;;;;;24.25;12.27;;;3.30;96.80;;;;;;5033086;28;20037;-75
2021/11/13 01:45:27;;;;;;;19.80;11.48;;;3.30;97.90;;;;;;5034251;28;20026;-78
2021/11/13 01:47:53;;;;;;;21.23;11.65;;;3.30;98.00;;;;;;5034802;28;20021;-76
2021/11/13 01:50:22;;;;;;;16.83;10.50;;;3.20;98.00;;;;;;5034719;28;20036;-76
2021/11/13 01:52:49;;;;;;;18.13;11.10;;;3.20;98.00;;;;;;5034442;28;20422;-76
2021/11/13 01:55:20;;;;;;;18.70;11.32;;;3.10;98.00;;;;;;5034285;28;20107;-76
2021/11/13 01:57:48;;;;;;;16.80;10.07;;;3.00;98.00;;;;;;5029082;28;20533;-76
2021/11/13 02:00:29;;;;;;;15.02;9.15;;;2.80;98.00;;;;;;5031235;28;20022;-76
2021/11/13 02:02:55;;;;;;;28.98;17.20;;;2.80;98.00;;;;;;5031415;28;20147;-76
2021/11/13 02:05:21;;;;;;;31.83;20.00;;;2.70;98.00;;;;;;5030193;28;20057;-76
2021/11/13 02:07:47;;;;;;;21.17;13.60;;;2.60;98.00;;;;;;5032689;28;20030;-76
2021/11/13 02:10:14;;;;;;;19.85;12.35;;;2.50;98.00;;;;;;5033671;28;20026;-76
2021/11/13 02:12:40;;;;;;;17.65;10.55;;;2.40;98.00;;;;;;5031747;28;20029;-75
2021/11/13 02:15:07;;;;;;;19.48;10.70;;;2.40;98.00;;;;;;5034819;28;20121;-75
2021/11/13 02:17:33;;;;;;;16.38;9.95;;;2.30;98.00;;;;;;5031316;28;20103;-75
2021/11/13 02:20:34;;;;;;;17.50;9.25;;;2.10;98.00;;;;;;5022271;28;20076;-75
2021/11/13 02:23:06;;;;;;;19.65;11.15;;;2.10;98.00;;;;;;5024951;28;20057;-75
2021/11/13 02:25:33;;;;;;;23.40;14.18;;;2.10;98.00;;;;;;5033289;28;20079;-75
2021/11/13 02:27:59;;;;;;;25.10;14.52;;;2.20;98.00;;;;;;5033172;28;20060;-75
2021/11/13 02:30:27;;;;;;;27.45;14.93;;;2.20;98.00;;;;;;5035057;28;20419;-76
2021/11/13 02:32:54;;;;;;;23.90;14.45;;;2.20;98.00;;;;;;5036266;28;20087;-74
2021/11/13 02:35:21;;;;;;;19.92;12.10;;;2.20;98.00;;;;;;5037651;28;20406;-77
2021/11/13 02:37:47;;;;;;;20.50;12.40;;;2.20;98.00;;;;;;5032500;28;20029;-75
2021/11/13 02:40:14;;;;;;;17.73;11.80;;;2.20;98.00;;;;;;5051751;28;20179;-76
2021/11/13 02:42:40;;;;;;;20.10;12.55;;;2.10;98.00;;;;;;5038241;28;20034;-75
2021/11/13 02:45:10;;;;;;;25.50;14.27;;;2.20;98.00;;;;;;5037519;28;20025;-76
2021/11/13 02:47:39;;;;;;;20.13;12.75;;;2.40;98.00;;;;;;5037420;28;20057;-75
2021/11/13 02:50:05;;;;;;;21.58;13.00;;;2.60;98.00;;;;;;5036572;28;20328;-75
2021/11/13 02:52:44;;;;;;;19.25;11.95;;;2.50;98.00;;;;;;5041594;28;20029;-76
2021/11/13 02:55:09;;;;;;;23.52;11.68;;;2.40;98.00;;;;;;5036859;28;20030;-76
2021/11/13 02:57:38;;;;;;;20.13;11.57;;;2.30;98.00;;;;;;5029818;28;20036;-75
2021/11/13 03:00:05;;;;;;;19.48;11.43;;;2.30;98.00;;;;;;5035704;28;20059;-75
2021/11/13 03:02:31;;;;;;;18.35;9.85;;;2.40;98.00;;;;;;5033237;28;20037;-76
2021/11/13 03:04:56;;;;;;;21.42;11.82;;;2.40;98.00;;;;;;5037692;28;20021;-76
2021/11/13 03:07:22;;;;;;;18.50;12.05;;;2.30;98.00;;;;;;5036836;28;20422;-76
2021/11/13 03:09:48;;;;;;;23.08;11.50;;;2.20;98.00;;;;;;5034952;28;20069;-75
2021/11/13 03:12:13;;;;;;;17.10;10.65;;;2.00;98.00;;;;;;5037143;28;20033;-75
2021/11/13 03:14:39;;;;;;;18.33;9.88;;;1.90;98.00;;;;;;5037821;28;20490;-76
2021/11/13 03:17:06;;;;;;;14.00;8.52;;;1.90;98.00;;;;;;5034306;28;20318;-75
2021/11/13 03:19:32;;;;;;;14.98;9.43;;;2.00;98.00;;;;;;5036734;28;20030;-76
2021/11/13 03:21:58;;;;;;;15.38;8.27;;;2.00;98.00;;;;;;5033582;28;20057;-76
2021/11/13 03:24:26;;;;;;;14.50;9.63;;;1.90;98.00;;;;;;5034466;28;20028;-75
2021/11/13 03:26:52;;;;;;;13.15;8.02;;;1.90;98.00;;;;;;5030147;28;20029;-76
2021/11/13 03:29:26;;;;;;;13.73;7.43;;;2.00;98.00;;;;;;5036346;28;20029;-76
2021/11/13 03:31:53;;;;;;;15.05;8.63;;;2.30;98.00;;;;;;5037633;28;20100;-76
2021/11/13 03:34:19;;;;;;;12.13;8.05;;;2.50;98.00;;;;;;5036962;28;20021;-77
2021/11/13 03:36:47;;;;;;;14.25;8.45;;;2.40;98.00;;;;;;5049018;28;20022;-77
2021/11/13 03:39:13;;;;;;;16.50;8.20;;;2.30;98.00;;;;;;5035302;28;20025;-76
2021/11/13 03:41:39;;;;;;;12.85;7.75;;;2.20;98.00;;;;;;5034514;28;20353;-76
2021/11/13 03:44:05;;;;;;;14.80;7.90;;;2.20;98.00;;;;;;5036979;28;20051;-76
2021/11/13 03:46:30;;;;;;;13.63;7.22;;;2.20;98.00;;;;;;5036057;28;20433;-76
2021/11/13 03:48:56;;;;;;;12.45;5.72;;;2.30;98.00;;;;;;5032321;28;20034;-76
2021/11/13 03:51:22;;;;;;;13.63;6.70;;;2.60;98.00;;;;;;5029839;28;20033;-76
2021/11/13 03:53:49;;;;;;;11.63;6.45;;;2.90;98.00;;;;;;5034924;28;20076;-76
2021/11/13 03:56:15;;;;;;;9.95;6.20;;;3.00;98.00;;;;;;5035449;28;20022;-75
2021/11/13 03:58:41;;;;;;;10.93;6.15;;;3.00;98.00;;;;;;5036937;28;20018;-75
2021/11/13 04:01:07;;;;;;;10.30;5.75;;;2.80;98.00;;;;;;5036186;28;20028;-75
2021/11/13 04:03:33;;;;;;;10.02;5.50;;;2.80;98.00;;;;;;5036138;28;20479;-76
2021/11/13 04:05:58;;;;;;;9.20;5.53;;;2.70;98.00;;;;;;5036453;28;20022;-76
2021/11/13 04:08:24;;;;;;;10.10;5.65;;;2.60;98.00;;;;;;5026998;28;20021;-77
2021/11/13 04:10:50;;;;;;;11.75;5.90;;;2.60;98.00;;;;;;5035566;28;20049;-76
2021/11/13 04:13:19;;;;;;;9.68;5.65;;;2.60;98.00;;;;;;5036108;28;20026;-76
2021/11/13 04:15:44;;;;;;;9.13;5.68;;;2.60;98.00;;;;;;5028614;28;20326;-76
2021/11/13 04:18:10;;;;;;;9.38;5.25;;;2.70;98.00;;;;;;5034393;28;20055;-76
2021/11/13 04:20:36;;;;;;;9.60;5.05;;;2.90;98.00;;;;;;5035319;28;20065;-75
2021/11/13 04:23:02;;;;;;;9.02;5.30;;;3.00;98.00;;;;;;5031682;28;20117;-75
2021/11/13 04:25:28;;;;;;;9.43;4.97;;;3.10;98.00;;;;;;5047209;28;20108;-76
2021/11/13 04:27:54;;;;;;;8.10;5.10;;;3.10;98.00;;;;;;5034535;28;20113;-76
2021/11/13 04:30:20;;;;;;;9.15;4.93;;;3.20;98.00;;;;;;5034260;28;20018;-76
2021/11/13 04:32:49;;;;;;;8.38;4.88;;;3.30;98.00;;;;;;5036482;28;20109;-77
2021/11/13 04:37:52;;;;;;;9.90;5.57;;;3.60;97.50;;;;;;5031705;28;20052;-76
2021/11/13 04:40:19;;;;;;;8.98;4.65;;;3.60;97.90;;;;;;5033817;28;20112;-76
2021/11/13 04:42:45;;;;;;;9.65;4.15;;;3.60;98.00;;;;;;5035782;28;20057;-76
2021/11/13 04:45:11;;;;;;;9.70;4.35;;;3.70;98.00;;;;;;5035513;28;20064;-77
2021/11/13 04:47:37;;;;;;;7.70;3.97;;;3.70;98.00;;;;;;5031834;28;20044;-76
2021/11/13 04:50:04;;;;;;;7.80;4.40;;;3.90;97.30;;;;;;5035642;28;20060;-78
2021/11/13 04:52:30;;;;;;;8.50;3.97;;;4.10;96.10;;;;;;5031508;28;20056;-77
2021/11/13 04:54:56;;;;;;;8.13;3.78;;;4.20;95.50;;;;;;5034161;28;20061;-76
2021/11/13 04:57:22;;;;;;;6.95;4.00;;;4.30;95.50;;;;;;5033958;28;20033;-78
2021/11/13 04:59:48;;;;;;;7.72;3.97;;;4.30;95.80;;;;;;5034041;28;20034;-76
2021/11/13 05:02:13;;;;;;;6.72;3.72;;;4.30;95.90;;;;;;5034916;28;20136;-75
2021/11/13 05:04:39;;;;;;;6.10;3.60;;;4.30;96.40;;;;;;5035823;28;20028;-76
2021/11/13 05:07:05;;;;;;;6.82;3.85;;;4.40;96.20;;;;;;5034227;28;20021;-76
2021/11/13 05:09:30;;;;;;;9.98;5.30;;;4.60;95.60;;;;;;5035010;28;20022;-76
2021/11/13 05:11:56;;;;;;;7.55;4.78;;;4.70;95.50;;;;;;5034942;28;20517;-76
2021/11/13 05:14:22;;;;;;;8.43;4.13;;;4.60;96.30;;;;;;5035534;28;20048;-77
2021/11/13 05:16:47;;;;;;;6.93;3.53;;;4.60;96.70;;;;;;5031035;28;20032;-75
2021/11/13 05:19:13;;;;;;;7.72;3.92;;;4.60;96.20;;;;;;5031444;28;20029;-76
2021/11/13 05:21:39;;;;;;;6.47;3.47;;;4.80;95.50;;;;;;5030614;28;20036;-76
2021/11/13 05:24:05;;;;;;;7.28;3.88;;;4.90;94.40;;;;;;5035654;28;20021;-75
2021/11/13 05:26:31;;;;;;;6.53;3.28;;;5.10;92.20;;;;;;5029350;28;20384;-75
2021/11/13 05:28:56;;;;;;;6.10;3.35;;;5.30;90.60;;;;;;5051066;28;20025;-76
2021/11/13 05:31:22;;;;;;;6.90;3.53;;;5.40;90.40;;;;;;5033069;28;20024;-76
2021/11/13 05:33:48;;;;;;;6.93;3.38;;;5.50;91.00;;;;;;5035155;28;20029;-76
2021/11/13 05:36:13;;;;;;;5.97;3.40;;;5.40;91.90;;;;;;5029240;28;20025;-77
2021/11/13 05:38:39;;;;;;;6.95;3.60;;;5.50;92.00;;;;;;5034976;28;20080;-76
2021/11/13 05:41:04;;;;;;;6.20;3.53;;;5.50;92.60;;;;;;5034079;28;20096;-76
2021/11/13 05:43:30;;;;;;;6.30;3.83;;;5.50;93.40;;;;;;5025271;28;20437;-76
2021/11/13 05:45:56;;;;;;;7.72;4.32;;;5.30;93.90;;;;;;5032549;28;20422;-76
2021/11/13 05:48:22;;;;;;;7.10;3.50;;;5.30;95.00;;;;;;5027842;28;20029;-76
2021/11/13 05:50:48;;;;;;;7.53;3.72;;;5.30;95.20;;;;;;5028744;28;20032;-77
2021/11/13 05:53:13;;;;;;;7.22;3.45;;;5.30;95.40;;;;;;5033134;28;20026;-77
2021/11/13 05:55:40;;;;;;;6.05;3.60;;;5.20;95.60;;;;;;5031389;28;20033;-76
2021/11/13 05:58:06;;;;;;;6.88;3.90;;;5.10;95.60;;;;;;5033849;28;20029;-76
2021/11/13 06:00:32;;;;;;;7.05;3.80;;;5.20;94.70;;;;;;5033909;28;20501;-77
2021/11/13 06:02:58;;;;;;;6.65;3.90;;;5.30;93.50;;;;;;5048139;28;20048;-76
2021/11/13 06:05:27;;;;;;;5.15;3.10;;;5.60;92.50;;;;;;5033362;28;20418;-76
2021/11/13 06:07:53;;;;;;;6.40;3.40;;;5.80;92.10;;;;;;5033602;28;20029;-76
2021/11/13 06:10:19;;;;;;;6.72;3.50;;;6.00;89.70;;;;;;5037310;28;20025;-76
2021/11/13 06:12:48;;;;;;;6.70;3.80;;;6.10;92.00;;;;;;5046632;28;20033;-76
2021/11/13 06:15:14;;;;;;;5.90;3.03;;;6.10;91.30;;;;;;5031825;28;20025;-74
2021/11/13 06:17:41;;;;;;;9.38;4.38;;;6.20;90.60;;;;;;5030201;28;20053;-74
2021/11/13 06:20:09;;;;;;;6.45;3.70;;;6.20;92.20;;;;;;5032113;28;20033;-75
2021/11/13 06:22:35;;;;;;;9.10;4.10;;;6.20;91.30;;;;;;5030767;28;20381;-75
2021/11/13 06:25:00;;;;;;;9.60;3.90;;;6.30;90.00;;;;;;5032170;28;20112;-76
2021/11/13 06:27:26;;;;;;;6.75;3.38;;;6.50;89.00;;;;;;5033806;28;20022;-77
2021/11/13 06:29:55;;;;;;;6.68;3.08;;;6.60;88.60;;;;;;5034164;28;20022;-77
2021/11/13 06:32:20;;;;;;;7.65;3.58;;;6.70;89.00;;;;;;5028652;28;20021;-77
2021/11/13 06:34:49;;;;;;;6.45;3.67;;;6.70;89.00;;;;;;5049192;28;20050;-75
2021/11/13 06:37:15;;;;;;;6.10;3.05;;;6.80;88.50;;;;;;5034524;28;20033;-77
2021/11/13 06:39:40;;;;;;;8.30;4.05;;;6.90;86.80;;;;;;5032183;28;20036;-76
2021/11/13 06:42:06;;;;;;;5.90;3.72;;;6.90;88.30;;;;;;5023325;28;20121;-75
2021/11/13 06:44:32;;;;;;;7.43;3.40;;;7.00;87.10;;;;;;5030847;28;20079;-76
2021/11/13 06:46:58;;;;;;;7.70;3.25;;;7.00;86.60;;;;;;5032305;28;20357;-76
2021/11/13 06:49:23;;;;;;;6.07;3.22;;;7.10;86.30;;;;;;5028984;28;20480;-77
2021/11/13 06:51:49;;;;;;;7.13;3.40;;;7.30;85.80;;;;;;5034513;28;20104;-76
2021/11/13 06:54:15;;;;;;;9.13;3.22;;;7.40;85.80;;;;;;5033479;28;20037;-75
2021/11/13 06:56:42;;;;;;;5.80;3.03;;;7.60;85.70;;;;;;5032362;28;20444;-76
2021/11/13 06:59:08;;;;;;;6.03;3.50;;;7.70;85.50;;;;;;5025838;28;20139;-76
2021/11/13 07:01:33;;;;;;;6.72;3.45;;;7.70;86.20;;;;;;5032406;28;20064;-76
2021/11/13 07:03:59;;;;;;;7.00;3.78;;;7.60;87.30;;;;;;5030311;28;20026;-76
2021/11/13 07:06:25;;;;;;;8.60;4.28;;;7.70;87.80;;;;;;5028359;28;20096;-76
2021/11/13 07:08:50;;;;;;;8.40;4.25;;;7.70;87.90;;;;;;5031770;28;20091;-76
2021/11/13 07:11:16;;;;;;;6.80;3.65;;;7.70;88.80;;;;;;5019410;28;20029;-75
2021/11/13 07:13:41;;;;;;;8.68;4.10;;;7.70;89.20;;;;;;5027271;28;20025;-76
2021/11/13 07:16:08;;;;;;;7.50;3.95;;;7.70;89.20;;;;;;5031155;28;20037;-75
2021/11/13 07:18:33;;;;;;;7.05;3.80;;;7.70;89.80;;;;;;5034180;28;20045;-76
2021/11/13 07:21:04;;;;;;;9.07;4.50;;;7.60;90.00;;;;;;5033452;28;20052;-76
2021/11/13 07:23:30;;;;;;;6.75;4.30;;;7.60;90.80;;;;;;5036732;28;20036;-75
2021/11/13 07:25:58;;;;;;;6.20;3.50;;;7.50;90.60;;;;;;5035946;28;20022;-76
2021/11/13 07:28:44;;;;;;;9.15;4.93;;;7.70;90.00;;;;;;5032059;28;20325;-76
2021/11/13 07:31:16;;;;;;;6.22;3.63;;;7.90;90.60;;;;;;5036502;28;20109;-76
2021/11/13 07:33:44;;;;;;;35.55;20.20;;;7.90;88.30;;;;;;5046807;28;20037;-76
2021/11/13 07:36:10;;;;;;;19.83;11.05;;;8.10;89.60;;;;;;5035742;28;20029;-76
2021/11/13 07:38:39;;;;;;;11.95;6.45;;;7.90;90.20;;;;;;5037428;28;20029;-77
2021/11/13 07:41:09;;;;;;;15.95;8.82;;;8.00;90.40;;;;;;5036279;28;20074;-76
2021/11/13 07:43:35;;;;;;;9.25;5.63;;;8.10;91.00;;;;;;5029407;28;20040;-75
2021/11/13 07:46:00;;;;;;;9.00;4.95;;;8.30;90.50;;;;;;5030317;28;20406;-76
2021/11/13 07:48:26;;;;;;;10.80;4.50;;;8.50;90.80;;;;;;5032219;28;20097;-76
2021/11/13 07:50:52;;;;;;;6.90;3.80;;;8.60;91.30;;;;;;5036203;28;20026;-76
2021/11/13 07:53:18;;;;;;;7.43;4.20;;;8.80;91.40;;;;;;5035946;28;20389;-75
2021/11/13 07:55:44;;;;;;;8.05;3.97;;;8.80;91.80;;;;;;5033754;28;20120;-76
2021/11/13 07:58:13;;;;;;;8.02;4.10;;;8.80;92.20;;;;;;5035881;28;20034;-76
2021/11/13 08:00:39;;;;;;;9.80;4.38;;;8.80;92.30;;;;;;5036347;28;20306;-76
2021/11/13 08:03:04;;;;;;;6.80;4.05;;;8.80;91.60;;;;;;5034882;28;20038;-76
2021/11/13 08:05:30;;;;;;;9.38;5.32;;;8.80;90.60;;;;;;5035472;28;20022;-76
2021/11/13 08:07:56;;;;;;;8.02;4.07;;;8.80;90.60;;;;;;5033145;28;20021;-76
2021/11/13 08:10:22;;;;;;;9.43;4.40;;;8.90;91.60;;;;;;5035822;28;20028;-76
2021/11/13 08:12:47;;;;;;;8.00;3.97;;;8.90;90.10;;;;;;5035284;28;20127;-77
2021/11/13 08:15:14;;;;;;;10.13;4.00;;;9.00;90.50;;;;;;5037028;28;20160;-75
2021/11/13 08:17:41;;;;;;;7.93;4.18;;;9.10;90.60;;;;;;5051031;28;20318;-75
2021/11/13 08:20:08;;;;;;;7.13;3.80;;;9.20;90.20;;;;;;5025443;28;20030;-76
2021/11/13 08:22:35;;;;;;;6.85;3.80;;;9.20;88.00;;;;;;5036390;28;20433;-76
2021/11/13 08:25:06;;;;;;;7.53;3.92;;;9.30;85.60;;;;;;5032136;28;20034;-76
2021/11/13 08:27:31;;;;;;;6.50;3.50;;;9.30;87.10;;;;;;5037860;28;20056;-75
2021/11/13 08:29:57;;;;;;;9.38;4.55;;;9.30;86.30;;;;;;5027547;28;20021;-76
2021/11/13 08:32:22;;;;;;;6.93;3.60;;;9.40;86.60;;;;;;5027161;28;20030;-76
2021/11/13 08:34:48;;;;;;;6.03;3.03;;;9.50;85.80;;;;;;5036220;28;20029;-76
2021/11/13 08:37:14;;;;;;;8.45;2.90;;;9.70;84.80;;;;;;5036359;28;20064;-77
2021/11/13 08:39:40;;;;;;;6.55;2.95;;;9.90;83.80;;;;;;5027631;28;20030;-76
2021/11/13 08:42:12;;;;;;;5.32;2.67;;;10.00;82.30;;;;;;5033683;28;20033;-76
2021/11/13 08:44:41;;;;;;;5.03;2.80;;;10.20;82.50;;;;;;5050091;28;20034;-76
2021/11/13 08:47:08;;;;;;;5.78;2.70;;;10.50;83.00;;;;;;5031037;28;20341;-76
2021/11/13 08:49:38;;;;;;;7.60;2.42;;;10.60;80.00;;;;;;5032725;28;20021;-76
2021/11/13 08:52:04;;;;;;;6.95;2.60;;;10.70;80.80;;;;;;5034340;28;20022;-76
2021/11/13 08:54:30;;;;;;;5.57;2.55;;;10.80;80.50;;;;;;5027701;28;20029;-77
2021/11/13 08:56:56;;;;;;;7.28;2.90;;;10.90;81.50;;;;;;5034092;28;20096;-76
2021/11/13 08:59:21;;;;;;;5.40;2.97;;;11.00;79.70;;;;;;5051904;28;20128;-76
2021/11/13 09:01:50;;;;;;;5.28;2.70;;;11.20;79.70;;;;;;5036648;28;20041;-76
2021/11/13 09:04:18;;;;;;;6.68;2.95;;;11.10;79.10;;;;;;5030503;28;20306;-76
2021/11/13 09:06:44;;;;;;;6.95;3.00;;;11.10;79.90;;;;;;5032792;28;20021;-76
2021/11/13 09:09:11;;;;;;;50.42;30.60;;;11.30;80.30;;;;;;5033167;28;20034;-76
2021/11/13 09:11:39;;;;;;;24.83;20.00;;;11.50;79.30;;;;;;5034010;28;20427;-75
2021/11/13 09:14:07;;;;;;;8.40;5.90;;;11.50;78.90;;;;;;5036021;28;20032;-75
2021/11/13 09:16:33;;;;;;;5.93;3.00;;;11.70;79.50;;;;;;5035427;28;20030;-75
2021/11/13 09:18:59;;;;;;;5.40;2.90;;;11.60;77.80;;;;;;5034279;28;20028;-75
2021/11/13 09:21:27;;;;;;;7.90;3.47;;;11.50;78.90;;;;;;5034242;28;20072;-77
2021/11/13 09:23:53;;;;;;;6.65;3.35;;;11.50;79.90;;;;;;5035081;28;20024;-77
2021/11/13 09:26:19;;;;;;;6.55;3.25;;;11.50;77.40;;;;;;5034205;28;20405;-76
2021/11/13 09:28:44;;;;;;;6.38;3.20;;;11.40;77.40;;;;;;5032128;28;20037;-76
2021/11/13 09:31:10;;;;;;;5.38;3.08;;;11.30;77.70;;;;;;5031684;28;20021;-76
2021/11/13 09:33:36;;;;;;;6.95;3.38;;;11.30;77.30;;;;;;5031889;28;20426;-76
2021/11/13 09:36:05;;;;;;;5.72;3.08;;;11.10;77.40;;;;;;5018315;28;20052;-75
2021/11/13 09:38:34;;;;;;;5.55;2.42;;;10.90;79.00;;;;;;5033652;28;20033;-75
2021/11/13 09:41:04;;;;;;;5.78;3.60;;;10.90;80.00;;;;;;5031166;28;20029;-76
2021/11/13 09:43:31;;;;;;;9.23;3.63;;;10.90;78.90;;;;;;5028705;28;20110;-76
2021/11/13 09:45:59;;;;;;;5.93;3.00;;;10.80;79.80;;;;;;5015488;28;20029;-76
2021/11/13 09:48:25;;;;;;;7.40;3.20;;;10.80;79.50;;;;;;5036329;28;20057;-74
2021/11/13 09:50:51;;;;;;;6.30;2.78;;;10.80;79.50;;;;;;5027473;28;20041;-76
2021/11/13 09:53:19;;;;;;;5.32;2.60;;;10.90;79.60;;;;;;5036569;28;20040;-76
2021/11/13 09:55:47;;;;;;;5.30;2.80;;;11.10;79.80;;;;;;5033389;28;20468;-76
2021/11/13 09:58:13;;;;;;;5.38;2.40;;;11.20;79.10;;;;;;5035290;28;20033;-76
2021/11/13 10:00:40;;;;;;;5.10;2.22;;;11.30;79.60;;;;;;5031197;28;20041;-75
2021/11/13 10:03:08;;;;;;;6.28;2.80;;;11.40;81.50;;;;;;5029417;28;20121;-76
2021/11/13 10:05:34;;;;;;;5.40;2.40;;;11.60;79.60;;;;;;5041912;28;20072;-75
2021/11/13 10:08:00;;;;;;;6.47;2.95;;;11.50;79.00;;;;;;5017512;28;20026;-75
2021/11/13 10:10:39;;;;;;;5.85;3.00;;;11.40;79.50;;;;;;5021203;28;20026;-76
2021/11/13 10:13:22;;;;;;;6.50;3.38;;;11.30;80.30;;;;;;5033209;28;20034;-75
2021/11/13 10:15:52;;;;;;;4.25;2.50;;;11.30;79.70;;;;;;5034919;28;20120;-75
2021/11/13 10:18:24;;;;;;;5.80;2.72;;;11.40;80.20;;;;;;5050150;28;20060;-75
2021/11/13 10:20:56;;;;;;;6.72;3.40;;;11.40;80.50;;;;;;5033896;28;20018;-75
2021/11/13 10:23:28;;;;;;;5.80;2.13;;;11.70;79.80;;;;;;5034788;28;20036;-76
2021/11/13 10:25:54;;;;;;;4.88;2.25;;;12.00;80.00;;;;;;5033290;28;20052;-76
2021/11/13 10:28:21;;;;;;;5.35;1.80;;;12.20;79.80;;;;;;5033221;28;20026;-77
2021/11/13 10:30:47;;;;;;;4.70;2.30;;;12.30;79.90;;;;;;5033402;28;20052;-76
2021/11/13 10:33:13;;;;;;;4.60;1.80;;;12.40;81.10;;;;;;5034713;28;20021;-76
2021/11/13 10:35:50;;;;;;;4.60;2.10;;;12.40;80.60;;;;;;5034456;28;20022;-76
2021/11/13 10:38:20;;;;;;;5.25;1.80;;;12.30;81.40;;;;;;5034333;28;20033;-77
2021/11/13 10:40:55;;;;;;;4.97;1.90;;;12.50;81.10;;;;;;5032596;28;20033;-76
2021/11/13 10:43:50;;;;;;;6.00;1.92;;;12.60;81.10;;;;;;5034383;28;20033;-76
2021/11/13 10:46:25;;;;;;;;;;;12.40;81.30;;;;;;5033826;28;20083;-76
2021/11/13 10:48:52;;;;;;;3.65;1.83;;;12.40;81.30;;;;;;5033893;28;19918;-76
2021/11/13 10:51:28;;;;;;;5.53;1.80;;;12.50;81.10;;;;;;5034186;28;20095;-76
2021/11/13 10:53:54;;;;;;;4.63;2.10;;;12.30;81.70;;;;;;5037263;28;20113;-77
2021/11/13 10:56:25;;;;;;;5.65;2.08;;;12.10;83.70;;;;;;5047918;28;20555;-76
2021/11/13 10:58:55;;;;;;;6.30;3.72;;;12.00;83.90;;;;;;5037290;28;20442;-77
2021/11/13 11:01:29;;;;;;;6.47;2.42;;;12.00;84.30;;;;;;5034396;28;20049;-77
2021/11/13 11:04:07;;;;;;;8.15;2.40;;;12.00;82.70;;;;;;5037322;28;20307;-77
2021/11/13 11:06:41;;;;;;;4.65;2.10;;;12.00;83.50;;;;;;5036180;28;20030;-77
2021/11/13 11:09:23;;;;;;;4.30;1.90;;;12.00;83.90;;;;;;5038865;28;20025;-77
2021/11/13 11:11:51;;;;;;;6.80;2.70;;;12.00;83.50;;;;;;5039052;28;20081;-77
2021/11/13 11:14:19;;;;;;;7.75;2.78;;;12.10;84.00;;;;;;5037096;28;20025;-77
2021/11/13 11:16:48;;;;;;;5.40;2.05;;;12.10;84.00;;;;;;5038330;28;20424;-76
2021/11/13 11:19:17;;;;;;;5.72;1.90;;;11.90;83.00;;;;;;5050594;28;20367;-76
2021/11/13 11:21:59;;;;;;;6.07;2.38;;;11.80;83.70;;;;;;5047174;28;20418;-77
2021/11/13 11:24:26;;;;;;;6.57;2.53;;;11.70;84.40;;;;;;5053427;28;20381;-77
2021/11/13 11:27:09;;;;;;;5.15;2.50;;;11.50;83.60;;;;;;5036312;28;20025;-76
2021/11/13 11:29:55;;;;;;;8.45;2.80;;;11.40;85.20;;;;;;5034518;28;20038;-77
2021/11/13 11:32:35;;;;;;;6.07;2.92;;;11.20;88.60;;;;;;5037639;28;20029;-77
2021/11/13 11:35:08;;;;;;;5.88;3.00;;;11.00;89.70;;;;;;5028371;28;20088;-77
2021/11/13 11:37:40;;;;;;;6.95;3.13;;;10.90;91.10;;;;;;5037194;28;20412;-77
2021/11/13 11:40:27;;;;;;;6.65;3.78;;;10.90;91.80;;;;;;5032562;28;20026;-77
2021/11/13 11:42:53;;;;;;;8.25;4.60;;;10.80;92.10;;;;;;5037074;28;20026;-77
2021/11/13 11:45:23;;;;;;;7.07;4.43;;;10.50;93.80;;;;;;5037038;28;20048;-77
2021/11/13 11:47:51;;;;;;;7.95;4.20;;;10.30;94.70;;;;;;5037080;28;20108;-77
2021/11/13 11:50:26;;;;;;;7.25;3.72;;;10.20;95.30;;;;;;5037013;28;20090;-77
2021/11/13 11:52:56;;;;;;;6.55;3.88;;;10.10;95.00;;;;;;5035030;28;20030;-77
2021/11/13 11:55:22;;;;;;;7.40;4.13;;;10.10;95.10;;;;;;5030317;28;20519;-77
2021/11/13 11:58:02;;;;;;;10.02;4.18;;;9.90;95.40;;;;;;5036930;28;20034;-77
2021/11/13 12:00:31;;;;;;;13.63;7.78;;;9.90;95.20;;;;;;5037302;28;20458;-77
2021/11/13 12:02:59;;;;;;;15.05;9.35;;;9.80;96.50;;;;;;5034238;28;20091;-76
2021/11/13 12:05:27;;;;;;;15.27;9.25;;;9.70;95.80;;;;;;5036024;28;20022;-75
2021/11/13 12:07:56;;;;;;;18.15;10.30;;;9.40;96.30;;;;;;5035569;28;20022;-76
2021/11/13 12:10:32;;;;;;;17.75;10.07;;;9.20;96.40;;;;;;5035937;28;20049;-76
2021/11/13 12:13:03;;;;;;;15.77;9.50;;;8.90;96.50;;;;;;5034904;28;20048;-76
2021/11/13 12:15:30;;;;;;;15.73;9.30;;;8.70;96.40;;;;;;5035730;28;20334;-76
2021/11/13 12:18:11;;;;;;;15.63;10.98;;;8.60;96.50;;;;;;5036905;28;20448;-76
2021/11/13 12:20:37;;;;;;;14.88;10.00;;;8.50;97.40;;;;;;5052347;28;20038;-76
2021/11/13 12:23:08;;;;;;;18.65;12.18;;;8.50;97.90;;;;;;5028322;28;20026;-76
2021/11/13 12:25:37;;;;;;;22.08;13.65;;;8.40;97.60;;;;;;5034007;28;20021;-75
2021/11/13 12:28:16;;;;;;;18.13;11.43;;;8.30;97.50;;;;;;5037019;28;20426;-75
2021/11/13 12:30:53;;;;;;;21.65;11.98;;;8.30;98.00;;;;;;5036426;28;20026;-76
2021/11/13 12:33:25;;;;;;;17.75;11.20;;;8.40;98.00;;;;;;5048737;28;20029;-75
2021/11/13 12:36:12;;;;;;;14.40;10.23;;;8.40;98.00;;;;;;5029477;28;20044;-75
2021/11/13 12:38:45;;;;;;;13.70;8.98;;;8.40;97.80;;;;;;5036262;28;20029;-76
2021/11/13 12:41:25;;;;;;;14.80;9.55;;;8.40;97.50;;;;;;5035172;28;20449;-75
2021/11/13 12:43:54;;;;;;;14.10;9.10;;;8.50;97.40;;;;;;5035535;28;20037;-75
2021/11/13 12:46:41;;;;;;;14.77;8.68;;;8.60;97.80;;;;;;5029833;28;20018;-75
2021/11/13 12:49:19;;;;;;;14.02;9.90;;;8.60;97.70;;;;;;5046190;28;20133;-76
2021/11/13 12:52:09;;;;;;;14.93;10.73;;;8.70;98.00;;;;;;5033050;28;20018;-75
2021/11/13 12:54:57;;;;;;;13.85;9.73;;;8.80;97.90;;;;;;5035539;28;20018;-76